createdAt,value
2022-09-03T00:01:43.954Z,5.32
2022-09-03T00:04:25.972Z,5.50
2022-09-03T00:07:01.277Z,5.10
2022-09-03T00:09:46.973Z,5.50
2022-09-03T00:12:25.000Z,4.68
2022-09-03T00:15:00.932Z,5.90
2022-09-03T00:17:50.642Z,5.57
2022-09-03T00:20:24.942Z,5.15
2022-09-03T00:22:55.703Z,5.30
2022-09-03T00:26:10.438Z,6.00
2022-09-03T00:28:59.879Z,5.32
2022-09-03T00:31:39.045Z,5.82
2022-09-03T00:34:15.512Z,5.70
2022-09-03T00:36:45.997Z,6.18
2022-09-03T00:39:16.787Z,5.43
2022-09-03T00:42:08.247Z,5.85
2022-09-03T00:45:00.487Z,5.57
2022-09-03T00:48:03.717Z,5.93
2022-09-03T00:50:46.429Z,6.57
2022-09-03T00:53:34.787Z,6.03
2022-09-03T00:56:31.758Z,5.43
2022-09-03T00:59:09.418Z,5.32
2022-09-03T01:01:48.043Z,5.75
2022-09-03T01:04:36.537Z,5.90
2022-09-03T01:07:16.091Z,6.22
2022-09-03T01:09:54.030Z,5.60
2022-09-03T01:13:05.802Z,5.82
2022-09-03T01:15:51.729Z,6.20
2022-09-03T01:19:06.690Z,6.32
2022-09-03T01:22:06.099Z,6.03
2022-09-03T01:24:53.546Z,6.05
2022-09-03T01:27:35.360Z,6.22
2022-09-03T01:30:11.102Z,5.80
2022-09-03T01:32:46.061Z,6.43
2022-09-03T01:35:21.939Z,5.95
2022-09-03T01:38:18.658Z,6.40
2022-09-03T01:41:29.009Z,6.07
2022-09-03T01:44:21.049Z,6.20
2022-09-03T01:46:58.600Z,6.35
2022-09-03T01:49:41.551Z,6.38
2022-09-03T01:52:16.321Z,6.47
2022-09-03T01:55:08.202Z,7.40
2022-09-03T01:57:42.050Z,7.35
2022-09-03T02:00:13.978Z,6.47
2022-09-03T02:02:43.684Z,6.95
2022-09-03T02:05:14.365Z,6.65
2022-09-03T02:07:53.170Z,7.10
2022-09-03T02:10:30.069Z,7.20
2022-09-03T02:13:20.613Z,6.82
2022-09-03T02:15:50.724Z,6.35
2022-09-03T02:18:23.598Z,6.70
2022-09-03T02:20:53.584Z,6.20
2022-09-03T02:23:24.732Z,5.78
2022-09-03T02:26:01.909Z,6.00
2022-09-03T02:28:32.052Z,5.55
2022-09-03T02:30:59.894Z,5.90
2022-09-03T02:33:27.880Z,5.82
2022-09-03T02:35:55.821Z,5.85
2022-09-03T02:38:26.580Z,6.00
2022-09-03T02:40:54.620Z,5.95
2022-09-03T02:43:49.856Z,5.90
2022-09-03T02:46:27.953Z,6.35
2022-09-03T02:48:56.203Z,6.28
2022-09-03T02:51:23.773Z,6.35
2022-09-03T02:53:51.865Z,6.00
2022-09-03T02:56:19.281Z,6.35
2022-09-03T02:58:46.637Z,5.88
2022-09-03T03:01:21.779Z,6.78
2022-09-03T03:03:51.543Z,6.25
2022-09-03T03:06:22.662Z,6.28
2022-09-03T03:11:18.663Z,6.00
2022-09-03T03:13:47.086Z,6.38
2022-09-03T03:16:15.919Z,6.75
2022-09-03T03:18:46.365Z,6.53
2022-09-03T03:21:16.543Z,6.53
2022-09-03T03:23:44.477Z,6.60
2022-09-03T03:26:14.491Z,6.45
2022-09-03T03:28:42.557Z,6.40
2022-09-03T03:31:16.368Z,6.65
2022-09-03T03:33:44.162Z,5.60
2022-09-03T03:36:14.695Z,6.35
2022-09-03T03:38:43.829Z,5.93
2022-09-03T03:41:14.021Z,6.10
2022-09-03T03:43:41.629Z,6.20
2022-09-03T03:46:10.425Z,6.60
2022-09-03T03:48:39.368Z,6.72
2022-09-03T03:51:09.162Z,6.60
2022-09-03T03:53:38.340Z,7.13
2022-09-03T03:56:11.391Z,7.85
2022-09-03T03:58:44.411Z,8.88
2022-09-03T04:01:20.467Z,11.77
2022-09-03T04:03:48.796Z,12.07
2022-09-03T04:06:19.238Z,10.85
2022-09-03T04:08:50.485Z,12.48
2022-09-03T04:11:21.580Z,12.27
2022-09-03T04:16:19.878Z,10.07
2022-09-03T04:18:49.397Z,11.55
2022-09-03T04:21:19.435Z,11.63
2022-09-03T04:23:48.698Z,11.05
2022-09-03T04:26:19.138Z,9.60
2022-09-03T04:28:47.081Z,7.80
2022-09-03T04:31:17.545Z,6.97
2022-09-03T04:33:45.796Z,7.43
2022-09-03T04:36:14.231Z,6.82
2022-09-03T04:38:44.004Z,6.80
2022-09-03T04:41:14.691Z,6.30
2022-09-03T04:43:43.543Z,7.00
2022-09-03T04:46:16.163Z,6.55
2022-09-03T04:48:49.101Z,7.18
2022-09-03T04:51:18.692Z,6.88
2022-09-03T04:53:48.013Z,7.00
2022-09-03T04:56:24.025Z,6.97
2022-09-03T04:58:57.061Z,6.47
2022-09-03T05:01:27.320Z,6.50
2022-09-03T05:03:56.633Z,7.00
2022-09-03T05:06:25.710Z,6.82
2022-09-03T05:08:54.427Z,6.90
2022-09-03T05:11:22.767Z,7.03
2022-09-03T05:13:51.931Z,7.93
2022-09-03T05:16:19.956Z,7.72
2022-09-03T05:18:48.411Z,9.68
2022-09-03T05:21:18.359Z,10.23
2022-09-03T05:23:47.631Z,8.38
2022-09-03T05:26:18.495Z,8.73
2022-09-03T05:28:46.725Z,8.57
2022-09-03T05:31:20.741Z,7.35
2022-09-03T05:33:51.053Z,7.15
2022-09-03T05:36:21.029Z,7.23
2022-09-03T05:38:48.984Z,7.85
2022-09-03T05:41:18.986Z,7.88
2022-09-03T05:43:52.068Z,8.43
2022-09-03T05:46:20.223Z,8.27
2022-09-03T05:48:47.830Z,6.72
2022-09-03T05:51:17.053Z,7.70
2022-09-03T05:53:46.604Z,6.88
2022-09-03T05:56:18.129Z,7.22
2022-09-03T05:58:53.588Z,6.97
2022-09-03T06:01:23.302Z,7.03
2022-09-03T06:03:58.710Z,6.13
2022-09-03T06:06:27.432Z,6.95
2022-09-03T06:08:58.365Z,7.20
2022-09-03T06:11:28.838Z,6.97
2022-09-03T06:13:58.071Z,6.68
2022-09-03T06:16:31.471Z,6.63
2022-09-03T06:19:07.304Z,7.07
2022-09-03T06:21:35.245Z,7.15
2022-09-03T06:24:03.227Z,6.47
2022-09-03T06:26:30.784Z,6.53
2022-09-03T06:28:58.391Z,6.72
2022-09-03T06:31:26.384Z,5.63
2022-09-03T06:33:54.920Z,6.03
2022-09-03T06:36:24.735Z,5.90
2022-09-03T06:38:54.064Z,5.93
2022-09-03T06:41:26.508Z,6.72
2022-09-03T06:43:59.332Z,5.68
2022-09-03T06:46:26.809Z,6.25
2022-09-03T06:48:55.669Z,6.22
2022-09-03T06:51:26.321Z,5.97
2022-09-03T06:54:02.118Z,6.18
2022-09-03T06:56:30.387Z,5.63
2022-09-03T06:58:59.771Z,5.47
2022-09-03T07:01:32.331Z,5.97
2022-09-03T07:04:02.053Z,6.32
2022-09-03T07:06:37.551Z,5.68
2022-09-03T07:09:16.388Z,5.60
2022-09-03T07:11:49.915Z,5.90
2022-09-03T07:14:19.643Z,5.00
2022-09-03T07:16:48.858Z,6.72
2022-09-03T07:19:17.253Z,5.28
2022-09-03T07:21:50.073Z,5.78
2022-09-03T07:24:19.954Z,4.88
2022-09-03T07:26:48.952Z,4.90
2022-09-03T07:29:20.599Z,5.25
2022-09-03T07:31:52.166Z,5.45
2022-09-03T07:34:22.231Z,5.10
2022-09-03T07:36:51.830Z,5.60
2022-09-03T07:39:20.149Z,5.82
2022-09-03T07:41:47.913Z,5.93
2022-09-03T07:44:19.681Z,6.30
2022-09-03T07:46:51.636Z,5.45
2022-09-03T07:49:21.276Z,6.00
2022-09-03T07:51:50.964Z,5.70
2022-09-03T07:54:18.431Z,5.15
2022-09-03T07:56:45.958Z,5.53
2022-09-03T07:59:13.711Z,5.40
2022-09-03T08:01:41.330Z,5.30
2022-09-03T08:04:11.018Z,5.13
2022-09-03T08:06:38.943Z,5.72
2022-09-03T08:09:10.009Z,5.88
2022-09-03T08:14:09.048Z,7.47
2022-09-03T08:16:39.748Z,5.82
2022-09-03T08:19:07.696Z,5.60
2022-09-03T08:21:35.781Z,5.80
2022-09-03T08:24:04.954Z,5.53
2022-09-03T08:26:34.908Z,5.20
2022-09-03T08:29:02.726Z,6.00
2022-09-03T08:31:30.847Z,4.88
2022-09-03T08:34:00.567Z,4.90
2022-09-03T08:36:30.336Z,4.38
2022-09-03T08:39:04.040Z,4.47
2022-09-03T08:41:53.186Z,4.30
2022-09-03T08:44:47.500Z,3.95
2022-09-03T08:47:28.804Z,4.00
2022-09-03T08:50:12.782Z,4.03
2022-09-03T08:52:49.212Z,4.07
2022-09-03T08:55:28.350Z,3.78
2022-09-03T08:58:16.540Z,3.95
2022-09-03T09:01:02.144Z,3.50
2022-09-03T09:03:59.541Z,3.42
2022-09-03T09:06:48.952Z,3.90
2022-09-03T09:09:35.577Z,3.65
2022-09-03T09:12:21.688Z,3.45
2022-09-03T09:15:26.575Z,3.40
2022-09-03T09:18:12.620Z,3.65
2022-09-03T09:21:01.175Z,3.78
2022-09-03T09:23:57.790Z,4.30
2022-09-03T09:26:25.300Z,3.55
2022-09-03T09:29:05.770Z,3.72
2022-09-03T09:31:39.355Z,3.90
2022-09-03T09:34:08.598Z,3.53
2022-09-03T09:36:51.160Z,3.30
2022-09-03T09:39:19.411Z,3.88
2022-09-03T09:42:09.693Z,3.60
2022-09-03T09:44:43.046Z,3.22
2022-09-03T09:47:31.754Z,2.97
2022-09-03T09:50:02.491Z,3.30
2022-09-03T09:52:31.754Z,3.20
2022-09-03T09:55:26.729Z,2.90
2022-09-03T09:58:04.601Z,2.60
2022-09-03T10:00:35.009Z,2.90
2022-09-03T10:03:02.527Z,2.78
2022-09-03T10:05:33.830Z,2.88
2022-09-03T10:08:21.274Z,2.50
2022-09-03T10:10:50.524Z,2.25
2022-09-03T10:13:36.527Z,2.40
2022-09-03T10:16:13.707Z,2.75
2022-09-03T10:19:17.602Z,2.40
2022-09-03T10:21:56.211Z,2.50
2022-09-03T10:24:35.017Z,2.45
2022-09-03T10:27:02.522Z,2.50
2022-09-03T10:29:30.298Z,2.80
2022-09-03T10:32:43.837Z,2.50
2022-09-03T10:35:20.867Z,2.80
2022-09-03T10:38:15.552Z,2.80
2022-09-03T10:41:13.983Z,2.75
2022-09-03T10:43:53.413Z,2.50
2022-09-03T10:46:29.052Z,2.58
2022-09-03T10:49:23.666Z,2.88
2022-09-03T10:52:03.733Z,2.75
2022-09-03T10:54:43.905Z,3.03
2022-09-03T10:57:32.552Z,2.53
2022-09-03T11:00:13.718Z,2.70
2022-09-03T11:05:40.513Z,2.58
2022-09-03T11:08:14.393Z,2.53
2022-09-03T11:10:54.963Z,2.65
2022-09-03T11:13:31.729Z,2.88
2022-09-03T11:16:12.280Z,2.55
2022-09-03T11:18:48.993Z,3.25
2022-09-03T11:21:19.931Z,3.03
2022-09-03T11:24:04.468Z,2.72
2022-09-03T11:26:34.055Z,2.72
2022-09-03T11:29:24.050Z,2.83
2022-09-03T11:32:01.639Z,2.45
2022-09-03T11:34:33.265Z,2.63
2022-09-03T11:37:19.192Z,2.55
2022-09-03T11:40:03.786Z,2.88
2022-09-03T11:42:38.264Z,2.70
2022-09-03T11:45:27.393Z,3.40
2022-09-03T11:47:55.148Z,2.95
2022-09-03T11:50:28.409Z,2.92
2022-09-03T11:53:23.307Z,3.00
2022-09-03T11:56:04.392Z,3.17
2022-09-03T11:58:40.750Z,2.88
2022-09-03T12:01:16.348Z,2.78
2022-09-03T12:04:08.315Z,3.35
2022-09-03T12:07:00.446Z,2.85
2022-09-03T12:09:52.533Z,2.70
2022-09-03T12:12:44.155Z,3.05
2022-09-03T12:15:22.608Z,2.95
2022-09-03T12:18:16.554Z,5.97
2022-09-03T12:20:44.416Z,2.67
2022-09-03T12:23:15.253Z,2.67
2022-09-03T12:25:49.662Z,2.50
2022-09-03T12:28:23.692Z,3.03
2022-09-03T12:30:53.603Z,2.40
2022-09-03T12:33:23.390Z,2.95
2022-09-03T12:36:02.181Z,2.70
2022-09-03T12:38:40.611Z,3.30
2022-09-03T12:41:31.386Z,2.83
2022-09-03T12:44:00.813Z,2.72
2022-09-03T12:46:33.996Z,2.70
2022-09-03T12:52:05.459Z,3.22
2022-09-03T12:54:36.972Z,2.63
2022-09-03T12:57:05.208Z,2.70
2022-09-03T12:59:37.024Z,2.67
2022-09-03T13:02:23.856Z,2.88
2022-09-03T13:04:52.935Z,2.90
2022-09-03T13:07:39.096Z,3.20
2022-09-03T13:10:32.458Z,2.60
2022-09-03T13:13:15.849Z,2.88
2022-09-03T13:16:01.759Z,2.70
2022-09-03T13:18:34.842Z,2.60
2022-09-03T13:21:39.150Z,2.65
2022-09-03T13:24:19.717Z,2.70
2022-09-03T13:27:28.424Z,2.70
2022-09-03T13:30:13.430Z,2.75
2022-09-03T13:32:57.679Z,2.80
2022-09-03T13:35:32.666Z,2.67
2022-09-03T13:38:24.765Z,3.03
2022-09-03T13:40:58.577Z,4.05
2022-09-03T13:43:42.585Z,3.67
2022-09-03T13:46:21.346Z,3.28
2022-09-03T13:49:09.023Z,2.80
2022-09-03T13:51:49.871Z,3.20
2022-09-03T13:54:48.110Z,2.42
2022-09-03T13:57:37.760Z,2.80
2022-09-03T14:00:12.391Z,2.70
2022-09-03T14:02:52.837Z,3.10
2022-09-03T14:05:46.106Z,2.70
2022-09-03T14:08:35.804Z,3.08
2022-09-03T14:11:29.099Z,3.08
2022-09-03T14:14:11.619Z,2.80
2022-09-03T14:16:41.940Z,3.05
2022-09-03T14:19:27.814Z,3.05
2022-09-03T14:22:18.608Z,2.55
2022-09-03T14:25:14.861Z,2.40
2022-09-03T14:27:42.699Z,2.85
2022-09-03T14:30:40.710Z,2.58
2022-09-03T14:33:31.602Z,3.03
2022-09-03T14:36:01.567Z,3.17
2022-09-03T14:38:53.260Z,3.00
2022-09-03T14:41:29.595Z,3.45
2022-09-03T14:44:21.996Z,3.08
2022-09-03T14:46:52.074Z,2.83
2022-09-03T14:50:03.361Z,2.83
2022-09-03T14:52:49.669Z,3.03
2022-09-03T14:55:38.259Z,2.70
2022-09-03T14:58:25.331Z,3.00
2022-09-03T15:01:03.251Z,2.30
2022-09-03T15:04:15.348Z,2.85
2022-09-03T15:07:07.265Z,2.90
2022-09-03T15:09:40.386Z,3.70
2022-09-03T15:12:13.427Z,3.05
2022-09-03T15:14:53.151Z,3.40
2022-09-03T15:17:55.833Z,3.22
2022-09-03T15:20:36.535Z,3.60
2022-09-03T15:23:31.278Z,2.88
2022-09-03T15:26:04.939Z,3.08
2022-09-03T15:29:09.074Z,3.20
2022-09-03T15:31:51.624Z,3.45
2022-09-03T15:34:40.674Z,3.28
2022-09-03T15:37:18.955Z,3.83
2022-09-03T15:39:48.163Z,3.35
2022-09-03T15:42:26.146Z,3.38
2022-09-03T15:45:00.845Z,3.28
2022-09-03T15:47:51.709Z,3.60
2022-09-03T15:50:38.553Z,3.90
2022-09-03T15:53:35.034Z,3.72
2022-09-03T15:56:13.843Z,3.78
2022-09-03T15:58:59.830Z,3.42
2022-09-03T16:02:02.285Z,4.32
2022-09-03T16:04:41.411Z,4.28
2022-09-03T16:07:26.941Z,4.80
2022-09-03T16:10:25.507Z,4.25
2022-09-03T16:13:29.256Z,4.85
2022-09-03T16:15:59.679Z,3.83
2022-09-03T16:18:33.037Z,4.22
2022-09-03T16:21:06.637Z,3.60
2022-09-03T16:23:52.349Z,3.67
2022-09-03T16:26:54.851Z,3.63
2022-09-03T16:29:27.283Z,3.75
2022-09-03T16:32:13.155Z,3.85
2022-09-03T16:35:28.126Z,4.03
2022-09-03T16:38:01.510Z,3.83
2022-09-03T16:40:35.130Z,3.60
2022-09-03T16:43:43.451Z,4.65
2022-09-03T16:46:24.379Z,5.22
2022-09-03T16:49:12.764Z,4.70
2022-09-03T16:51:51.283Z,5.28
2022-09-03T16:54:42.467Z,3.92
2022-09-03T16:57:48.705Z,4.30
2022-09-03T17:00:20.378Z,4.78
2022-09-03T17:03:05.816Z,4.60
2022-09-03T17:05:52.808Z,4.53
2022-09-03T17:08:26.320Z,5.57
2022-09-03T17:11:34.752Z,4.68
2022-09-03T17:14:32.573Z,5.47
2022-09-03T17:17:11.562Z,5.32
2022-09-03T17:19:46.252Z,5.22
2022-09-03T17:22:51.321Z,5.00
2022-09-03T17:25:36.974Z,5.28
2022-09-03T17:28:25.075Z,5.38
2022-09-03T17:31:12.084Z,4.95
2022-09-03T17:34:03.760Z,5.25
2022-09-03T17:36:37.200Z,6.07
2022-09-03T17:39:23.362Z,5.78
2022-09-03T17:41:53.464Z,5.72
2022-09-03T17:44:44.240Z,5.65
2022-09-03T17:48:05.594Z,5.63
2022-09-03T17:51:03.288Z,5.85
2022-09-03T17:53:54.434Z,5.70
2022-09-03T17:56:24.691Z,5.10
2022-09-03T17:59:09.242Z,5.33
2022-09-03T18:01:45.740Z,5.65
2022-09-03T18:04:53.844Z,6.30
2022-09-03T18:07:53.607Z,6.72
2022-09-03T18:10:51.824Z,7.60
2022-09-03T18:13:48.672Z,7.95
2022-09-03T18:16:21.814Z,8.30
2022-09-03T18:18:52.889Z,8.40
2022-09-03T18:21:45.925Z,8.35
2022-09-03T18:24:53.637Z,7.90
2022-09-03T18:27:58.561Z,7.05
2022-09-03T18:30:46.628Z,7.63
2022-09-03T18:33:39.162Z,7.05
2022-09-03T18:36:25.258Z,6.35
2022-09-03T18:39:58.438Z,7.00
2022-09-03T18:43:11.524Z,7.13
2022-09-03T18:49:38.170Z,7.10
2022-09-03T18:52:30.266Z,6.93
2022-09-03T18:55:34.911Z,7.05
2022-09-03T18:58:33.609Z,7.40
2022-09-03T19:01:54.334Z,7.57
2022-09-03T19:05:03.782Z,7.90
2022-09-03T19:08:04.755Z,8.63
2022-09-03T19:11:14.291Z,8.20
2022-09-03T19:14:00.907Z,8.27
2022-09-03T19:17:20.975Z,8.07
2022-09-03T19:20:24.289Z,7.68
2022-09-03T19:23:10.279Z,6.85
2022-09-03T19:25:56.390Z,7.47
2022-09-03T19:28:50.332Z,7.13
2022-09-03T19:32:03.993Z,7.35
2022-09-03T19:35:31.350Z,7.18
2022-09-03T19:38:55.742Z,7.65
2022-09-03T19:41:55.384Z,6.80
2022-09-03T19:45:19.253Z,6.40
2022-09-03T19:48:17.213Z,7.07
2022-09-03T19:51:16.897Z,6.82
2022-09-03T19:54:06.515Z,7.03
2022-09-03T19:56:55.503Z,7.22
2022-09-03T19:59:45.144Z,7.35
2022-09-03T20:02:31.245Z,7.05
2022-09-03T20:05:19.493Z,6.97
2022-09-03T20:08:10.867Z,7.05
2022-09-03T20:13:16.519Z,7.60
2022-09-03T20:16:24.759Z,7.63
2022-09-03T20:19:01.070Z,6.85
2022-09-03T20:21:29.540Z,6.38
2022-09-03T20:24:21.170Z,6.75
2022-09-03T20:27:01.697Z,6.80
2022-09-03T20:29:32.011Z,6.90
2022-09-03T20:32:09.587Z,6.72
2022-09-03T20:35:02.990Z,6.32
2022-09-03T20:38:03.859Z,5.78
2022-09-03T20:40:51.821Z,7.28
2022-09-03T20:44:23.685Z,7.22
2022-09-03T20:47:05.627Z,7.30
2022-09-03T20:49:51.478Z,6.93
2022-09-03T20:52:26.313Z,7.22
2022-09-03T20:55:12.974Z,7.00
2022-09-03T20:57:48.699Z,6.80
2022-09-03T21:00:18.563Z,7.00
2022-09-03T21:02:50.930Z,7.53
2022-09-03T21:05:31.448Z,7.20
2022-09-03T21:08:25.695Z,7.20
2022-09-03T21:10:58.951Z,7.07
2022-09-03T21:13:41.316Z,9.27
2022-09-03T21:16:27.392Z,7.95
2022-09-03T21:18:58.360Z,8.30
2022-09-03T21:21:54.242Z,7.53
2022-09-03T21:24:31.404Z,7.60
2022-09-03T21:27:06.600Z,7.00
2022-09-03T21:29:59.165Z,6.95
2022-09-03T21:32:33.740Z,7.65
2022-09-03T21:35:27.817Z,8.05
2022-09-03T21:38:05.514Z,7.82
2022-09-03T21:40:35.915Z,7.10
2022-09-03T21:43:15.473Z,7.57
2022-09-03T21:46:12.185Z,7.25
2022-09-03T21:48:57.294Z,7.85
2022-09-03T21:51:37.524Z,7.40
2022-09-03T21:54:21.844Z,8.02
2022-09-03T21:57:07.539Z,7.10
2022-09-03T21:59:56.051Z,7.57
2022-09-03T22:02:33.355Z,7.63
2022-09-03T22:05:02.119Z,7.55
2022-09-03T22:07:58.729Z,7.30
2022-09-03T22:10:46.929Z,7.75
2022-09-03T22:13:22.360Z,8.00
2022-09-03T22:15:51.720Z,7.68
2022-09-03T22:18:29.415Z,7.47
2022-09-03T22:21:03.382Z,7.20
2022-09-03T22:23:43.742Z,7.28
2022-09-03T22:26:24.221Z,8.10
2022-09-03T22:29:09.133Z,7.55
2022-09-03T22:32:03.514Z,7.57
2022-09-03T22:34:56.355Z,7.90
2022-09-03T22:37:47.269Z,7.50
2022-09-03T22:40:17.518Z,7.20
2022-09-03T22:42:50.190Z,7.90
2022-09-03T22:45:44.148Z,7.57
2022-09-03T22:48:32.176Z,7.55
2022-09-03T22:51:01.908Z,7.13
2022-09-03T22:53:50.717Z,7.65
2022-09-03T22:56:22.347Z,7.72
2022-09-03T22:59:11.648Z,7.35
2022-09-03T23:01:56.838Z,7.50
2022-09-03T23:04:52.922Z,7.93
2022-09-03T23:07:35.121Z,7.65
2022-09-03T23:10:08.903Z,8.57
2022-09-03T23:12:47.032Z,7.60
2022-09-03T23:15:29.465Z,7.97
2022-09-03T23:18:09.142Z,7.82
2022-09-03T23:20:41.072Z,8.52
2022-09-03T23:23:22.214Z,7.70
2022-09-03T23:28:32.356Z,7.72
2022-09-03T23:31:17.391Z,7.45
2022-09-03T23:33:46.492Z,8.23
2022-09-03T23:36:57.793Z,8.23
2022-09-03T23:39:20.055Z,8.38
2022-09-03T23:41:54.086Z,8.23
2022-09-03T23:44:40.171Z,8.50
2022-09-03T23:47:28.861Z,8.30
2022-09-03T23:50:05.214Z,8.13
2022-09-03T23:52:53.144Z,7.45
2022-09-03T23:55:55.918Z,7.80
2022-09-03T23:58:47.604Z,8.43
